createdAt,value
2019-04-29T00:00:03.960Z,75.58
2019-04-29T00:10:02.860Z,75.76
2019-04-29T00:20:02.692Z,75.41
2019-04-29T00:30:04.053Z,76.31
2019-04-29T00:40:08.644Z,76.68
2019-04-29T00:50:03.031Z,77.31
2019-04-29T01:00:03.483Z,77.12
2019-04-29T01:10:02.751Z,77.77
2019-04-29T01:20:07.947Z,78.36
2019-04-29T01:30:03.516Z,78.65
2019-04-29T01:40:02.993Z,78.92
2019-04-29T01:50:02.727Z,79.04
2019-04-29T02:00:02.889Z,79.28
2019-04-29T02:10:02.381Z,79.75
2019-04-29T02:20:03.259Z,80.22
2019-04-29T02:30:03.532Z,80.39
2019-04-29T02:40:07.928Z,80.41
2019-04-29T02:50:03.251Z,80.46
2019-04-29T03:00:03.663Z,80.78
2019-04-29T03:10:03.043Z,81.51
2019-04-29T03:20:07.415Z,81.34
2019-04-29T03:30:03.105Z,81.11
2019-04-29T03:40:02.563Z,82.32
2019-04-29T03:50:03.221Z,82.70
2019-04-29T04:00:03.491Z,82.08
2019-04-29T04:10:03.223Z,82.37
2019-04-29T04:20:08.639Z,81.39
2019-04-29T04:30:07.330Z,81.13
2019-04-29T04:40:03.131Z,81.37
2019-04-29T04:50:06.657Z,81.60
2019-04-29T05:00:03.468Z,81.01
2019-04-29T05:10:08.490Z,80.37
2019-04-29T05:20:08.366Z,79.50
2019-04-29T05:30:08.889Z,78.18
2019-04-29T05:40:08.565Z,78.11
2019-04-29T05:50:02.819Z,79.09
2019-04-29T06:00:02.962Z,78.29
2019-04-29T06:10:02.811Z,77.23
2019-04-29T06:20:02.758Z,77.20
2019-04-29T06:30:08.507Z,77.15
2019-04-29T06:40:02.869Z,76.97
2019-04-29T06:50:02.642Z,77.28
2019-04-29T07:00:03.788Z,77.33
2019-04-29T07:10:08.848Z,78.48
2019-04-29T07:20:03.719Z,79.06
2019-04-29T07:30:08.351Z,79.75
2019-04-29T07:40:07.925Z,81.40
2019-04-29T07:50:08.503Z,81.69
2019-04-29T08:00:04.193Z,79.77
2019-04-29T08:10:03.679Z,78.27
2019-04-29T08:20:08.484Z,76.76
2019-04-29T08:30:11.198Z,75.79
2019-04-29T08:40:16.970Z,76.16
2019-04-29T08:50:03.869Z,75.02
2019-04-29T09:00:04.472Z,72.66
2019-04-29T09:10:08.527Z,72.24
2019-04-29T09:20:03.657Z,71.11
2019-04-29T09:30:03.927Z,72.28
2019-04-29T09:40:02.936Z,72.16
2019-04-29T09:50:08.242Z,70.15
2019-04-29T10:00:07.015Z,71.71
2019-04-29T10:10:09.474Z,70.64
2019-04-29T10:20:03.479Z,73.16
2019-04-29T10:30:09.039Z,76.88
2019-04-29T10:40:11.740Z,73.85
2019-04-29T10:50:16.795Z,76.14
2019-04-29T11:00:09.611Z,77.55
2019-04-29T11:10:03.640Z,78.55
2019-04-29T11:20:03.147Z,77.96
2019-04-29T11:30:05.298Z,70.42
2019-04-29T11:40:03.085Z,68.17
2019-04-29T11:50:03.318Z,73.65
2019-04-29T12:00:10.666Z,66.98
2019-04-29T12:10:07.883Z,62.94
2019-04-29T12:20:03.821Z,64.27
2019-04-29T12:30:03.913Z,65.29
2019-04-29T12:40:03.266Z,69.51
2019-04-29T12:50:08.764Z,73.91
2019-04-29T13:00:09.113Z,76.28
2019-04-29T13:10:08.982Z,73.70
2019-04-29T13:20:07.177Z,73.81
2019-04-29T13:30:14.826Z,72.60
2019-04-29T13:40:07.903Z,70.29
2019-04-29T13:50:20.356Z,69.79
2019-04-29T14:00:03.247Z,70.76
2019-04-29T14:10:02.347Z,70.86
2019-04-29T14:20:15.412Z,72.30
2019-04-29T14:30:09.550Z,71.50
2019-04-29T14:40:09.691Z,76.29
2019-04-29T14:50:02.900Z,77.14
2019-04-29T15:00:08.691Z,78.00
2019-04-29T15:10:07.986Z,76.27
2019-04-29T15:20:08.127Z,77.66
2019-04-29T15:30:09.397Z,77.97
2019-04-29T15:40:02.755Z,81.12
2019-04-29T15:50:19.208Z,81.14
2019-04-29T16:00:22.387Z,83.54
2019-04-29T16:10:08.600Z,80.53
2019-04-29T16:20:02.992Z,82.24
2019-04-29T16:30:03.214Z,82.06
2019-04-29T16:40:02.986Z,82.35
2019-04-29T16:50:08.415Z,84.13
2019-04-29T17:00:14.110Z,86.00
2019-04-29T17:10:08.313Z,87.42
2019-04-29T17:20:02.735Z,88.15
2019-04-29T17:32:09.814Z,87.07
2019-04-29T17:40:02.331Z,86.55
2019-04-29T17:50:09.224Z,86.06
2019-04-29T18:00:08.614Z,86.61
2019-04-29T18:10:08.517Z,87.54
2019-04-29T18:20:06.926Z,87.05
2019-04-29T18:30:03.439Z,87.15
2019-04-29T18:40:05.636Z,87.22
2019-04-29T18:50:08.702Z,88.03
2019-04-29T19:00:14.490Z,88.84
2019-04-29T19:10:18.247Z,89.04
2019-04-29T19:20:03.070Z,87.93
2019-04-29T19:30:04.993Z,87.94
2019-04-29T19:40:08.707Z,87.67
2019-04-29T19:50:16.362Z,86.70
2019-04-29T20:00:06.809Z,86.26
2019-04-29T20:10:11.672Z,86.71
2019-04-29T20:20:08.862Z,87.70
2019-04-29T20:30:20.580Z,87.62
2019-04-29T20:40:02.751Z,88.90
2019-04-29T20:50:14.029Z,88.68
2019-04-29T21:00:03.809Z,89.72
2019-04-29T21:10:08.493Z,90.61
2019-04-29T21:20:08.591Z,89.50
2019-04-29T21:30:03.678Z,88.76
2019-04-29T21:40:18.632Z,90.06
2019-04-29T21:50:03.034Z,91.42
2019-04-29T22:00:08.776Z,92.39
2019-04-29T22:10:04.899Z,91.72
2019-04-29T22:20:08.484Z,91.59
2019-04-29T22:30:03.291Z,91.67
2019-04-29T22:40:08.132Z,92.64
2019-04-29T22:50:04.752Z,92.61
2019-04-29T23:00:08.829Z,92.32
2019-04-29T23:10:03.130Z,92.15
2019-04-29T23:20:08.522Z,92.46
2019-04-29T23:30:03.620Z,92.69
2019-04-29T23:40:03.113Z,92.78
2019-04-29T23:50:08.431Z,92.59
